Time;durP1;ratioP1;P1;durP2;ratioP2;P2;SDS_P1;SDS_P2;PMS_P1;PMS_P2;Temp;Humidity;BMP_temperature;BMP_pressure;BME280_temperature;BME280_humidity;BME280_pressure;Samples;Min_cycle;Max_cycle;Signal;HPM_P1;HPM_P2
2024/03/27 00:01:18;;;;;;;;;2.50;2.00;;;;;10.50;76.88;98332.34;5080944;27;45464;-62
2024/03/27 00:03:43;;;;;;;;;1.00;1.00;;;;;10.46;77.19;98316.69;5080928;27;45543;-62
2024/03/27 00:06:09;;;;;;;;;2.00;2.00;;;;;10.48;76.82;98312.09;5079582;28;47289;-62
2024/03/27 00:08:35;;;;;;;;;2.25;2.25;;;;;10.49;76.95;98321.78;5080918;27;45376;-62
2024/03/27 00:11:01;;;;;;;;;3.00;3.00;;;;;10.44;76.47;98299.91;5080757;27;45566;-62
2024/03/27 00:13:26;;;;;;;;;2.00;2.00;;;;;10.26;76.64;98281.56;5080525;27;45450;-62
2024/03/27 00:15:52;;;;;;;;;1.00;1.00;;;;;10.24;77.43;98283.50;5080787;27;45455;-62
2024/03/27 00:18:18;;;;;;;;;2.25;2.25;;;;;10.29;77.56;98302.69;5080594;27;45276;-62
2024/03/27 00:20:44;;;;;;;;;2.00;2.00;;;;;10.30;77.80;98307.03;5079903;27;45916;-62
2024/03/27 00:23:09;;;;;;;;;2.00;2.00;;;;;10.25;77.03;98292.34;5080647;27;45264;-62
2024/03/27 00:25:34;;;;;;;;;2.00;2.00;;;;;10.24;77.04;98275.50;5080374;28;48936;-62
2024/03/27 00:28:00;;;;;;;;;1.50;1.50;;;;;10.36;77.84;98290.66;5079967;28;48846;-62
2024/03/27 00:30:25;;;;;;;;;4.00;4.00;;;;;10.22;77.42;98280.06;5079138;28;48487;-62
2024/03/27 00:32:55;;;;;;;;;1.00;1.00;;;;;10.16;77.19;98276.03;5080488;27;45415;-62
2024/03/27 00:35:20;;;;;;;;;2.00;2.00;;;;;10.19;77.60;98283.81;5079242;28;45516;-62
2024/03/27 00:37:46;;;;;;;;;4.00;3.00;;;;;10.26;77.25;98305.56;5095377;27;45540;-62
2024/03/27 00:40:12;;;;;;;;;1.75;1.75;;;;;10.10;77.43;98275.59;5080247;27;45857;-62
2024/03/27 00:42:38;;;;;;;;;2.00;2.00;;;;;10.14;77.94;98293.94;5078838;28;45399;-62
2024/03/27 00:45:03;;;;;;;;;3.00;2.00;;;;;10.18;77.57;98287.44;5096162;27;45391;-62
2024/03/27 00:47:29;;;;;;;;;1.50;1.25;;;;;10.09;77.32;98276.56;5078828;28;45296;-62
2024/03/27 00:49:54;;;;;;;;;5.75;3.50;;;;;10.32;77.94;98323.84;5080350;27;45355;-62
2024/03/27 00:52:20;;;;;;;;;3.50;2.00;;;;;10.11;78.25;98291.50;5080019;28;45384;-62
2024/03/27 00:54:45;;;;;;;;;2.00;2.00;;;;;10.15;77.98;98297.47;5078897;28;45335;-62
2024/03/27 00:57:10;;;;;;;;;2.75;2.75;;;;;10.28;78.46;98316.97;5079850;27;45831;-62
2024/03/27 00:59:36;;;;;;;;;3.00;3.00;;;;;10.33;78.58;98332.69;5080042;28;45437;-62
2024/03/27 01:02:01;;;;;;;;;8.00;3.00;;;;;10.08;78.25;98289.03;5079915;28;45305;-62
2024/03/27 01:04:27;;;;;;;;;5.00;4.00;;;;;10.13;78.44;98296.72;5075359;28;45364;-62
2024/03/27 01:06:52;;;;;;;;;4.00;4.00;;;;;10.10;78.80;98279.13;5075364;28;45540;-62
2024/03/27 01:09:18;;;;;;;;;3.75;3.00;;;;;10.13;78.96;98292.22;5078503;28;46945;-62
2024/03/27 01:11:44;;;;;;;;;6.00;3.75;;;;;10.23;78.66;98300.44;5079509;27;45417;-62
2024/03/27 01:14:10;;;;;;;;;3.00;2.00;;;;;10.33;79.06;98322.88;5080085;27;45455;-62
2024/03/27 01:16:35;;;;;;;;;3.50;3.50;;;;;10.17;78.98;98291.06;5079698;27;45452;-62
2024/03/27 01:19:00;;;;;;;;;3.00;3.00;;;;;10.20;78.62;98290.00;5079677;27;46111;-62
2024/03/27 01:21:26;;;;;;;;;4.25;3.25;;;;;10.26;78.90;98294.91;5095416;27;45766;-62
2024/03/27 01:23:51;;;;;;;;;5.25;4.25;;;;;10.22;78.91;98292.56;5079954;28;45609;-62
2024/03/27 01:26:17;;;;;;;;;6.25;3.25;;;;;10.22;79.08;98301.41;5079087;28;45616;-62
2024/03/27 01:28:42;;;;;;;;;8.00;5.00;;;;;10.12;79.40;98290.56;5079598;28;45388;-62
2024/03/27 01:31:07;;;;;;;;;5.00;5.00;;;;;10.28;79.28;98327.63;5079517;27;45326;-62
2024/03/27 01:33:32;;;;;;;;;6.25;5.25;;;;;10.26;79.15;98316.22;5079849;27;45445;-62
2024/03/27 01:35:58;;;;;;;;;2.00;2.00;;;;;10.27;79.50;98314.41;5079286;27;47702;-62
2024/03/27 01:38:23;;;;;;;;;5.50;5.50;;;;;10.41;79.49;98340.13;5079430;27;46577;-62
2024/03/27 01:40:49;;;;;;;;;5.00;4.75;;;;;10.16;78.95;98289.34;5079234;28;45505;-62
2024/03/27 01:43:14;;;;;;;;;8.00;6.00;;;;;10.20;79.45;98295.31;5078128;28;45306;-62
2024/03/27 01:45:40;;;;;;;;;6.25;6.25;;;;;10.27;79.30;98325.06;5079486;27;45453;-62
2024/03/27 01:48:07;;;;;;;;;4.00;4.00;;;;;10.22;79.30;98311.22;5079362;28;46041;-62
2024/03/27 01:50:34;;;;;;;;;9.00;5.00;;;;;10.23;79.80;98295.13;5077969;28;45494;-62
2024/03/27 01:53:01;;;;;;;;;5.00;4.00;;;;;10.40;79.88;98330.44;5079480;27;45417;-62
2024/03/27 01:55:28;;;;;;;;;4.00;4.00;;;;;10.17;79.89;98301.75;5079325;27;45428;-62
2024/03/27 01:57:54;;;;;;;;;8.00;5.25;;;;;10.16;80.00;98293.84;5079018;27;45499;-62
2024/03/27 02:00:20;;;;;;;;;13.75;8.25;;;;;10.33;80.19;98314.88;5079310;27;45770;-62
2024/03/27 02:02:46;;;;;;;;;7.25;7.25;;;;;10.20;80.14;98284.66;5079384;27;45477;-62
2024/03/27 02:05:12;;;;;;;;;8.00;6.25;;;;;10.28;79.76;98292.13;5079011;28;45536;-62
2024/03/27 02:07:41;;;;;;;;;6.00;6.00;;;;;10.44;80.24;98310.59;5077300;28;47936;-62
2024/03/27 02:10:10;;;;;;;;;7.75;6.00;;;;;10.51;79.69;98311.88;5079100;27;45629;-62
2024/03/27 02:12:35;;;;;;;;;8.00;6.25;;;;;10.22;80.13;98257.91;5079069;27;45256;-62
2024/03/27 02:15:05;;;;;;;;;5.75;4.50;;;;;10.47;80.02;98287.22;5078972;27;45342;-62
2024/03/27 02:17:30;;;;;;;;;6.25;6.25;;;;;10.31;79.71;98260.75;5078754;28;47442;-62
2024/03/27 02:19:55;;;;;;;;;6.25;6.25;;;;;10.53;80.27;98301.94;5078768;28;45381;-62
2024/03/27 02:22:23;;;;;;;;;7.00;7.00;;;;;10.28;80.16;98262.81;5079186;28;45473;-62
2024/03/27 02:24:54;;;;;;;;;5.50;5.50;;;;;10.33;80.29;98264.19;5078823;27;45358;-62
2024/03/27 02:27:19;;;;;;;;;7.00;6.25;;;;;10.24;80.40;98254.19;5078527;27;46332;-62
2024/03/27 02:29:45;;;;;;;;;10.50;9.25;;;;;10.32;80.18;98257.19;5078728;27;45420;-62
2024/03/27 02:32:10;;;;;;;;;7.50;6.25;;;;;10.27;80.18;98234.44;5079078;27;45366;-62
2024/03/27 02:34:35;;;;;;;;;6.75;6.00;;;;;10.47;79.95;98267.69;5078719;28;45438;-62
2024/03/27 02:37:01;;;;;;;;;5.00;5.00;;;;;10.31;80.90;98236.78;5078649;27;45567;-62
2024/03/27 02:39:26;;;;;;;;;4.50;4.50;;;;;10.46;80.38;98274.84;5078637;27;45554;-62
2024/03/27 02:41:51;;;;;;;;;8.00;8.00;;;;;10.35;80.74;98262.28;5078871;27;45334;-62
2024/03/27 02:44:18;;;;;;;;;5.25;5.25;;;;;10.42;80.59;98272.50;5081510;28;45461;-62
2024/03/27 02:46:43;;;;;;;;;8.50;5.50;;;;;10.24;80.41;98248.84;5082026;27;45420;-62
2024/03/27 02:49:08;;;;;;;;;5.75;5.75;;;;;10.48;80.86;98288.09;5081949;27;45654;-62
2024/03/27 02:51:34;;;;;;;;;10.50;7.50;;;;;10.28;80.65;98250.31;5082353;28;45285;-62
2024/03/27 02:53:59;;;;;;;;;4.25;4.00;;;;;10.37;80.42;98262.16;5081912;28;45357;-62
2024/03/27 02:56:24;;;;;;;;;8.50;8.00;;;;;10.55;80.30;98295.53;5081778;27;45611;-62
2024/03/27 02:58:50;;;;;;;;;8.50;6.00;;;;;10.49;80.19;98273.78;5080496;28;45358;-62
2024/03/27 03:01:15;;;;;;;;;4.25;4.25;;;;;10.52;80.06;98279.78;5082011;28;45244;-62
2024/03/27 03:03:40;;;;;;;;;8.00;6.25;;;;;10.39;80.06;98254.94;5081818;27;45412;-62
2024/03/27 03:06:05;;;;;;;;;4.50;4.00;;;;;10.38;80.42;98248.72;5081829;28;48451;-62
2024/03/27 03:08:31;;;;;;;;;5.00;4.75;;;;;10.59;80.43;98282.81;5081819;28;45298;-62
2024/03/27 03:10:59;;;;;;;;;8.50;6.00;;;;;10.58;79.92;98278.47;5082099;27;45313;-62
2024/03/27 03:13:25;;;;;;;;;6.75;4.00;;;;;10.24;80.02;98222.19;5081580;28;45323;-62
2024/03/27 03:15:50;;;;;;;;;6.25;5.25;;;;;10.48;79.94;98258.75;5081662;28;45381;-62
2024/03/27 03:18:15;;;;;;;;;3.25;3.25;;;;;10.46;79.75;98256.19;5080135;28;45317;-62
2024/03/27 03:20:41;;;;;;;;;6.25;4.00;;;;;10.38;79.85;98234.56;5081839;28;45350;-62
2024/03/27 03:23:07;;;;;;;;;8.00;4.75;;;;;10.58;80.50;98265.13;5081630;28;45523;-62
2024/03/27 03:25:32;;;;;;;;;2.00;2.00;;;;;10.38;79.91;98234.56;5081412;28;45363;-62
2024/03/27 03:27:58;;;;;;;;;5.25;4.25;;;;;10.49;80.24;98244.44;5081172;27;45330;-62
2024/03/27 03:30:23;;;;;;;;;3.75;3.75;;;;;10.40;80.26;98221.09;5081709;27;45244;-62
2024/03/27 03:32:48;;;;;;;;;3.75;3.75;;;;;10.43;79.77;98220.88;5081435;27;45318;-62
2024/03/27 03:35:14;;;;;;;;;4.25;3.75;;;;;10.63;79.76;98248.78;5081411;27;45304;-62
2024/03/27 03:37:40;;;;;;;;;3.00;3.00;;;;;10.59;79.92;98236.63;5079998;28;45435;-62
2024/03/27 03:40:09;;;;;;;;;4.00;4.00;;;;;10.32;79.65;98184.31;5081571;28;45555;-62
2024/03/27 03:42:34;;;;;;;;;4.00;3.50;;;;;10.59;79.71;98236.63;5079720;28;46127;-62
2024/03/27 03:44:59;;;;;;;;;4.00;4.00;;;;;10.45;79.39;98217.13;5081305;27;46198;-62
2024/03/27 03:47:25;;;;;;;;;9.00;4.50;;;;;10.38;79.87;98202.53;5081104;27;45433;-62
2024/03/27 03:49:50;;;;;;;;;2.75;2.75;;;;;10.55;79.67;98222.66;5081406;27;45448;-62
2024/03/27 03:52:15;;;;;;;;;2.25;2.25;;;;;10.37;79.53;98179.50;5079684;28;46029;-62
2024/03/27 03:54:41;;;;;;;;;3.25;3.25;;;;;10.60;79.59;98215.19;5079787;28;46079;-62
2024/03/27 03:57:06;;;;;;;;;4.25;4.00;;;;;10.60;79.80;98201.84;5080826;27;45775;-62
2024/03/27 03:59:32;;;;;;;;;4.00;3.75;;;;;10.59;79.75;98199.28;5081254;27;45419;-62
2024/03/27 04:01:57;;;;;;;;;5.50;5.00;;;;;10.44;79.29;98179.91;5080675;27;48493;-62
2024/03/27 04:04:22;;;;;;;;;5.50;5.50;;;;;10.38;79.86;98183.88;5080616;28;55836;-62
2024/03/27 04:06:47;;;;;;;;;6.25;6.25;;;;;10.39;80.08;98193.59;5080960;27;45231;-62
2024/03/27 04:09:13;;;;;;;;;6.25;6.25;;;;;10.57;79.83;98226.06;5081243;27;45322;-62
2024/03/27 04:11:38;;;;;;;;;5.25;4.25;;;;;10.35;79.44;98197.44;5080643;27;45313;-62
2024/03/27 04:14:06;;;;;;;;;5.25;4.25;;;;;10.56;80.13;98241.22;5080783;27;46267;-62
2024/03/27 04:16:32;;;;;;;;;5.00;5.00;;;;;10.34;80.16;98209.03;5080733;27;45345;-62
2024/03/27 04:18:58;;;;;;;;;5.00;5.00;;;;;10.50;79.66;98227.47;5079433;28;45754;-62
2024/03/27 04:21:23;;;;;;;;;5.00;5.00;;;;;10.46;79.75;98210.84;5080701;27;45382;-62
2024/03/27 04:23:49;;;;;;;;;6.25;4.50;;;;;10.45;80.13;98209.13;5080666;28;45464;-62
2024/03/27 04:26:16;;;;;;;;;0.00;0.00;;;;;10.63;79.92;98228.28;5080089;27;45345;-62
2024/03/27 04:28:41;;;;;;;;;3.75;3.75;;;;;10.47;79.89;98206.34;5080977;28;45664;-62
2024/03/27 04:31:06;;;;;;;;;3.00;3.00;;;;;10.48;79.93;98190.25;5079084;28;45535;-62
2024/03/27 04:33:32;;;;;;;;;4.00;4.00;;;;;10.40;80.00;98183.78;5080684;28;46114;-62
2024/03/27 04:35:57;;;;;;;;;5.25;4.00;;;;;10.38;79.70;98179.38;5080453;27;45263;-62
2024/03/27 04:38:23;;;;;;;;;4.00;3.50;;;;;10.50;79.94;98190.13;5080587;28;45290;-62
2024/03/27 04:40:48;;;;;;;;;4.00;4.00;;;;;10.68;80.09;98219.97;5080477;27;45443;-62
2024/03/27 04:43:13;;;;;;;;;4.00;3.75;;;;;10.56;80.18;98195.88;5080031;28;52074;-62
2024/03/27 04:45:39;;;;;;;;;3.00;3.00;;;;;10.61;79.91;98192.88;5080162;27;45365;-62
2024/03/27 04:48:05;;;;;;;;;4.00;3.00;;;;;10.68;79.46;98207.47;5079131;28;45240;-62
2024/03/27 04:50:31;;;;;;;;;4.00;3.50;;;;;10.59;79.78;98199.28;5080250;27;45993;-62
2024/03/27 04:52:56;;;;;;;;;5.25;5.00;;;;;10.59;79.44;98193.94;5080178;28;45265;-62
2024/03/27 04:55:21;;;;;;;;;3.25;3.25;;;;;10.53;79.83;98200.59;5079952;27;45307;-62
2024/03/27 04:57:47;;;;;;;;;6.00;4.25;;;;;10.50;79.25;98195.47;5078833;28;45341;-62
2024/03/27 05:00:13;;;;;;;;;3.00;3.00;;;;;10.51;79.47;98198.03;5079946;27;45917;-62
2024/03/27 05:02:39;;;;;;;;;5.00;5.00;;;;;10.77;79.71;98231.78;5080022;27;45390;-62
2024/03/27 05:05:05;;;;;;;;;3.50;3.50;;;;;10.59;79.61;98202.78;5079942;27;45385;-62
2024/03/27 05:07:31;;;;;;;;;5.00;4.00;;;;;10.72;79.86;98216.09;5079872;27;45467;-62
2024/03/27 05:09:56;;;;;;;;;3.25;3.25;;;;;10.60;79.66;98196.50;5078558;28;45477;-62
2024/03/27 05:12:22;;;;;;;;;6.25;4.75;;;;;10.57;79.41;98191.38;5079723;27;45425;-62
2024/03/27 05:14:47;;;;;;;;;6.00;4.00;;;;;10.79;79.36;98229.84;5078526;28;46127;-62
2024/03/27 05:17:12;;;;;;;;;4.00;3.50;;;;;10.63;79.52;98212.28;5075210;27;45370;-62
2024/03/27 05:19:39;;;;;;;;;4.25;4.00;;;;;10.70;79.71;98234.88;5072601;28;45544;-62
2024/03/27 05:22:05;;;;;;;;;3.00;3.00;;;;;10.69;79.59;98235.84;5079721;27;46260;-62
2024/03/27 05:24:31;;;;;;;;;5.25;4.00;;;;;10.76;79.18;98241.59;5078386;28;45510;-62
2024/03/27 05:26:56;;;;;;;;;5.00;5.00;;;;;10.59;79.15;98210.78;5078113;28;45433;-62
2024/03/27 05:29:21;;;;;;;;;5.75;4.00;;;;;10.49;79.61;98191.97;5079772;28;45525;-62
2024/03/27 05:31:55;;;;;;;;;6.00;3.50;;;;;10.62;79.14;98209.72;5079424;27;46283;-62
2024/03/27 05:34:22;;;;;;;;;4.50;4.25;;;;;10.72;79.09;98227.59;5078305;28;45383;-62
2024/03/27 05:36:47;;;;;;;;;4.00;3.25;;;;;10.63;79.36;98230.13;5078413;28;45772;-62
2024/03/27 05:39:13;;;;;;;;;6.75;3.50;;;;;10.60;79.10;98225.00;5079365;28;45545;-62
2024/03/27 05:41:39;;;;;;;;;5.75;4.00;;;;;10.74;79.21;98249.72;5079451;27;45417;-62
2024/03/27 05:44:08;;;;;;;;;5.75;5.00;;;;;10.71;78.97;98246.41;5077934;28;45465;-62
2024/03/27 05:46:34;;;;;;;;;5.25;5.25;;;;;10.59;79.15;98234.78;5079365;27;45492;-62
2024/03/27 05:49:01;;;;;;;;;5.00;4.25;;;;;10.71;79.49;98259.75;5077323;28;45693;-62
2024/03/27 05:51:29;;;;;;;;;4.50;4.25;;;;;10.53;78.74;98230.78;5079361;27;45459;-62
2024/03/27 05:53:54;;;;;;;;;4.00;4.00;;;;;10.62;78.88;98263.09;5079061;27;45499;-62
2024/03/27 05:56:20;;;;;;;;;5.75;5.75;;;;;10.46;79.15;98229.53;5094609;27;45471;-62
2024/03/27 05:58:45;;;;;;;;;4.00;4.00;;;;;10.46;78.74;98234.00;5079012;28;45396;-62
2024/03/27 06:01:11;;;;;;;;;5.50;4.75;;;;;10.38;79.09;98230.06;5079054;28;45479;-62
2024/03/27 06:03:36;;;;;;;;;3.50;3.00;;;;;10.44;79.00;98239.44;5079216;27;45380;-62
2024/03/27 06:06:01;;;;;;;;;5.00;3.75;;;;;10.55;79.21;98263.50;5079292;27;45614;-62
2024/03/27 06:08:27;;;;;;;;;3.25;2.25;;;;;10.45;78.75;98249.13;5079067;27;45408;-62
2024/03/27 06:10:52;;;;;;;;;3.75;3.00;;;;;10.42;78.28;98244.03;5077220;28;47896;-62
2024/03/27 06:13:18;;;;;;;;;2.00;2.00;;;;;10.48;78.18;98250.75;5078926;27;45299;-62
2024/03/27 06:15:44;;;;;;;;;5.25;4.75;;;;;10.38;78.42;98229.22;5079110;28;45514;-62
2024/03/27 06:18:09;;;;;;;;;3.50;3.50;;;;;10.44;78.18;98243.91;5095668;27;45344;-62
2024/03/27 06:20:34;;;;;;;;;4.50;4.00;;;;;10.44;78.38;98249.25;5082330;27;47960;-62
2024/03/27 06:22:59;;;;;;;;;3.00;3.00;;;;;10.55;78.11;98266.19;5082555;27;45339;-62
2024/03/27 06:25:25;;;;;;;;;5.25;2.75;;;;;10.63;78.44;98276.31;5082514;27;45260;-62
2024/03/27 06:27:50;;;;;;;;;4.25;2.25;;;;;10.41;78.06;98242.34;5082305;27;45325;-62
2024/03/27 06:30:16;;;;;;;;;3.75;3.75;;;;;10.55;78.50;98279.53;5082441;28;45387;-62
2024/03/27 06:32:42;;;;;;;;;6.25;3.75;;;;;10.45;77.81;98266.97;5082248;27;45324;-62
2024/03/27 06:35:08;;;;;;;;;3.50;3.50;;;;;10.51;78.45;98269.22;5082637;27;45403;-62
2024/03/27 06:37:34;;;;;;;;;4.25;3.00;;;;;10.59;78.04;98281.97;5082302;27;45373;-62
2024/03/27 06:40:00;;;;;;;;;4.00;3.75;;;;;10.54;78.23;98268.97;5082294;27;45611;-62
2024/03/27 06:42:26;;;;;;;;;3.00;3.00;;;;;10.54;78.50;98279.63;5081978;27;45520;-62
2024/03/27 06:44:51;;;;;;;;;7.00;3.50;;;;;10.40;78.24;98266.44;5098069;27;45402;-62
2024/03/27 06:47:19;;;;;;;;;2.00;2.00;;;;;10.52;78.60;98282.44;5082029;27;45529;-62
2024/03/27 06:49:45;;;;;;;;;2.75;2.50;;;;;10.43;78.31;98271.56;5082083;28;46519;-62
2024/03/27 06:52:10;;;;;;;;;3.00;2.00;;;;;10.62;77.61;98300.44;5097794;27;45337;-62
2024/03/27 06:54:36;;;;;;;;;3.00;2.00;;;;;10.60;77.22;98303.22;5082201;27;45546;-62
2024/03/27 06:57:01;;;;;;;;;0.00;0.00;;;;;10.37;77.46;98273.72;5081738;27;45390;-62
2024/03/27 06:59:26;;;;;;;;;2.25;2.25;;;;;10.35;77.63;98270.28;5080581;28;47061;-62
2024/03/27 07:01:52;;;;;;;;;3.25;3.25;;;;;10.39;77.38;98273.59;5081699;28;45317;-62
2024/03/27 07:04:17;;;;;;;;;3.00;3.00;;;;;10.32;77.90;98259.84;5082053;28;45293;-62
2024/03/27 07:06:42;;;;;;;;;4.00;4.00;;;;;10.36;78.02;98265.81;5081968;28;45589;-62
2024/03/27 07:09:08;;;;;;;;;3.00;3.00;;;;;10.45;77.61;98297.16;5080448;28;48045;-62
2024/03/27 07:11:34;;;;;;;;;1.00;1.00;;;;;10.48;77.43;98298.75;5081650;27;45386;-62
2024/03/27 07:13:59;;;;;;;;;3.00;3.00;;;;;10.45;77.57;98293.63;5080648;28;45426;-62
2024/03/27 07:16:26;;;;;;;;;2.00;1.00;;;;;10.22;77.14;98264.06;5081653;28;45576;-62
2024/03/27 07:18:53;;;;;;;;;2.25;2.25;;;;;10.35;77.12;98277.44;5081536;27;45546;-62
2024/03/27 07:21:18;;;;;;;;;2.00;2.00;;;;;10.48;76.71;98291.59;5081798;27;45474;-62
2024/03/27 07:23:44;;;;;;;;;4.25;3.00;;;;;10.32;76.24;98272.31;5081845;27;45318;-62
2024/03/27 07:26:09;;;;;;;;;3.00;3.00;;;;;10.25;76.27;98274.53;5079213;28;45395;-63
2024/03/27 07:28:35;;;;;;;;;4.75;2.75;;;;;10.43;76.43;98304.41;5079940;28;45363;-62
2024/03/27 07:31:01;;;;;;;;;3.75;3.00;;;;;10.41;76.73;98302.78;5081415;28;45632;-63
2024/03/27 07:33:27;;;;;;;;;4.00;3.50;;;;;10.15;76.71;98273.47;5081506;27;45288;-62
2024/03/27 07:35:53;;;;;;;;;3.00;3.00;;;;;10.34;76.54;98297.03;5079715;28;45416;-62
2024/03/27 07:38:19;;;;;;;;;2.75;2.75;;;;;10.21;76.54;98281.03;5093357;27;48131;-62
2024/03/27 07:40:46;;;;;;;;;3.75;2.75;;;;;10.16;76.11;98270.69;5076577;27;46211;-62
2024/03/27 07:43:12;;;;;;;;;2.00;2.00;;;;;10.23;76.27;98286.28;5080552;28;45430;-62
2024/03/27 07:45:37;;;;;;;;;1.50;1.50;;;;;10.07;76.46;98252.66;5080007;27;45446;-62
2024/03/27 07:48:03;;;;;;;;;3.25;3.00;;;;;10.16;75.90;98257.38;5080805;28;52851;-62
2024/03/27 07:50:28;;;;;;;;;2.75;2.25;;;;;10.08;76.07;98241.06;5079934;27;45607;-62
2024/03/27 07:52:54;;;;;;;;;1.50;1.50;;;;;10.09;76.56;98234.78;5079957;28;45418;-62
2024/03/27 07:55:19;;;;;;;;;2.00;2.00;;;;;10.34;76.05;98279.25;5079706;28;45561;-62
2024/03/27 07:57:46;;;;;;;;;2.50;2.00;;;;;10.28;76.49;98262.81;5080725;27;46272;-62
2024/03/27 08:00:12;;;;;;;;;3.50;2.50;;;;;10.20;76.65;98247.34;5079719;28;45653;-62
2024/03/27 08:02:40;;;;;;;;;2.25;2.25;;;;;10.29;76.43;98257.38;5079538;28;45466;-62
2024/03/27 08:05:06;;;;;;;;;2.00;2.00;;;;;10.34;76.70;98271.25;5079846;28;45610;-62
2024/03/27 08:07:33;;;;;;;;;3.00;2.00;;;;;10.27;76.27;98261.09;5092828;27;48331;-62
2024/03/27 08:09:58;;;;;;;;;2.00;2.00;;;;;10.35;75.98;98278.28;5073587;28;45498;-62
2024/03/27 08:12:24;;;;;;;;;2.00;2.00;;;;;10.08;75.80;98235.72;5080792;27;45726;-62
2024/03/27 08:14:49;;;;;;;;;3.75;2.00;;;;;10.15;75.76;98263.66;5079425;28;45592;-62
2024/03/27 08:17:15;;;;;;;;;2.00;2.00;;;;;10.11;75.89;98259.50;5080764;27;45572;-62
2024/03/27 08:19:41;;;;;;;;;3.00;3.00;;;;;10.18;75.38;98279.44;5080641;28;45469;-62
2024/03/27 08:22:08;;;;;;;;;2.00;2.00;;;;;10.02;75.52;98261.00;5081046;28;45397;-62
2024/03/27 08:24:33;;;;;;;;;2.00;2.00;;;;;10.11;75.47;98278.16;5080539;27;45430;-62
2024/03/27 08:26:59;;;;;;;;;2.00;2.00;;;;;10.11;74.98;98277.31;5080171;27;45382;-62
2024/03/27 08:29:24;;;;;;;;;2.75;2.25;;;;;10.04;75.16;98268.91;5080635;27;45485;-62
2024/03/27 08:31:50;;;;;;;;;1.00;1.00;;;;;9.94;74.79;98259.81;5080311;28;49372;-62
2024/03/27 08:34:15;;;;;;;;;3.25;2.50;;;;;9.99;74.85;98289.69;5080496;28;45586;-62
2024/03/27 08:36:40;;;;;;;;;1.25;1.00;;;;;10.06;74.92;98309.63;5078911;28;46273;-62
2024/03/27 08:39:09;;;;;;;;;2.00;2.00;;;;;9.88;74.80;98274.44;5080332;27;45456;-62
2024/03/27 08:41:36;;;;;;;;;2.00;1.75;;;;;10.08;74.76;98309.53;5079480;27;45338;-62
2024/03/27 08:44:03;;;;;;;;;2.00;2.00;;;;;9.92;74.96;98280.41;5080392;27;45315;-62
2024/03/27 08:46:29;;;;;;;;;3.75;3.00;;;;;9.85;74.93;98263.13;5080091;27;47396;-62
2024/03/27 08:48:54;;;;;;;;;3.00;3.00;;;;;10.09;75.28;98293.41;5080258;27;45629;-62
2024/03/27 08:51:20;;;;;;;;;2.75;2.00;;;;;10.08;75.38;98293.53;5080633;27;45498;-62
2024/03/27 08:53:47;;;;;;;;;2.25;2.00;;;;;9.80;75.36;98260.78;5080197;27;45488;-62
2024/03/27 08:56:13;;;;;;;;;2.00;2.00;;;;;10.14;75.33;98314.41;5080026;27;46433;-62
2024/03/27 08:58:39;;;;;;;;;2.50;1.25;;;;;10.01;75.28;98293.09;5079854;28;45673;-62
2024/03/27 09:01:06;;;;;;;;;3.75;2.00;;;;;10.10;74.98;98307.59;5078889;28;45325;-62
2024/03/27 09:03:32;;;;;;;;;2.00;2.00;;;;;10.18;75.35;98311.44;5080034;27;45396;-62
2024/03/27 09:05:57;;;;;;;;;3.00;2.00;;;;;10.07;75.52;98302.47;5079838;27;45433;-62
2024/03/27 09:08:22;;;;;;;;;3.50;3.00;;;;;10.20;75.45;98332.66;5079975;27;45522;-62
2024/03/27 09:10:48;;;;;;;;;2.75;2.75;;;;;10.27;75.75;98343.75;5078543;28;45417;-62
2024/03/27 09:13:13;;;;;;;;;2.75;2.00;;;;;10.30;75.50;98354.19;5079814;28;45614;-62
2024/03/27 09:15:39;;;;;;;;;3.25;2.25;;;;;10.14;75.41;98327.72;5078503;28;48312;-62
2024/03/27 09:18:05;;;;;;;;;4.00;4.00;;;;;10.37;75.79;98356.38;5079740;27;45445;-62
2024/03/27 09:20:31;;;;;;;;;8.00;7.00;;;;;10.29;75.82;98348.03;5079790;27;45413;-62
2024/03/27 09:22:57;;;;;;;;;3.75;2.75;;;;;10.26;75.68;98337.56;5079662;28;45472;-62
2024/03/27 09:25:22;;;;;;;;;3.00;3.00;;;;;10.35;75.47;98366.28;5079505;28;45479;-62
2024/03/27 09:27:48;;;;;;;;;5.00;4.00;;;;;10.20;75.75;98336.16;5079306;27;45328;-62
2024/03/27 09:30:16;;;;;;;;;3.25;3.25;;;;;10.11;75.55;98338.63;5078612;28;45347;-63
2024/03/27 09:32:42;;;;;;;;;2.00;2.00;;;;;10.09;75.87;98341.41;5092363;27;45487;-62
2024/03/27 09:35:08;;;;;;;;;3.50;2.75;;;;;10.30;75.76;98372.88;5079506;27;45428;-62
2024/03/27 09:37:34;;;;;;;;;2.50;2.00;;;;;10.11;76.12;98339.47;5078177;28;45484;-62
2024/03/27 09:39:59;;;;;;;;;1.00;1.00;;;;;10.10;76.12;98334.25;5079601;27;45442;-62
2024/03/27 09:42:26;;;;;;;;;2.25;2.25;;;;;10.12;76.76;98335.88;5094893;27;45500;-62
2024/03/27 09:44:51;;;;;;;;;3.25;3.25;;;;;10.14;76.50;98331.28;5079476;28;45456;-62
2024/03/27 09:47:17;;;;;;;;;2.00;2.00;;;;;10.08;76.38;98318.34;5079148;27;45440;-62
2024/03/27 09:49:42;;;;;;;;;2.75;2.75;;;;;10.25;76.74;98346.50;5079635;27;45453;-62
2024/03/27 09:52:10;;;;;;;;;3.00;2.75;;;;;10.40;76.05;98359.78;5079361;27;45603;-62
2024/03/27 09:54:37;;;;;;;;;2.75;2.75;;;;;10.29;76.25;98331.16;5079293;27;46449;-62
2024/03/27 09:57:03;;;;;;;;;3.00;2.00;;;;;10.46;75.72;98346.03;5078959;27;45406;-62
2024/03/27 09:59:29;;;;;;;;;3.25;0.75;;;;;10.58;76.09;98355.81;5079497;27;45479;-62
2024/03/27 10:02:05;;;;;;;;;3.00;3.00;;;;;10.54;75.53;98356.97;5077666;28;45486;-62
2024/03/27 10:04:31;;;;;;;;;2.50;2.50;;;;;10.48;75.48;98352.09;5079070;27;45555;-62
2024/03/27 10:06:56;;;;;;;;;2.75;2.75;;;;;10.68;76.05;98378.22;5079213;28;45360;-62
2024/03/27 10:09:22;;;;;;;;;1.75;1.75;;;;;10.67;75.86;98373.00;5077946;28;45540;-62
2024/03/27 10:11:47;;;;;;;;;2.75;2.00;;;;;10.53;75.85;98332.13;5077508;28;45646;-62
2024/03/27 10:14:13;;;;;;;;;1.25;1.25;;;;;10.56;75.52;98337.25;5077760;28;47285;-62
2024/03/27 10:16:38;;;;;;;;;3.25;2.25;;;;;10.59;75.72;98340.66;5078912;27;45280;-62
2024/03/27 10:19:05;;;;;;;;;2.50;2.25;;;;;10.66;75.45;98349.94;5079212;27;45319;-62
2024/03/27 10:21:30;;;;;;;;;2.00;2.00;;;;;10.64;74.49;98342.06;5078807;27;45681;-62
2024/03/27 10:23:56;;;;;;;;;3.00;2.00;;;;;10.84;74.59;98367.31;5077531;28;48601;-62
2024/03/27 10:26:22;;;;;;;;;3.00;3.00;;;;;10.86;74.67;98367.19;5077204;28;45427;-62
2024/03/27 10:28:48;;;;;;;;;1.75;1.75;;;;;10.69;74.24;98341.72;5079052;27;45326;-62
2024/03/27 10:31:14;;;;;;;;;2.00;2.00;;;;;10.89;74.09;98369.63;5078746;27;45487;-62
2024/03/27 10:33:39;;;;;;;;;2.00;2.00;;;;;10.73;74.52;98352.06;5078779;27;45441;-62
2024/03/27 10:36:05;;;;;;;;;1.00;1.00;;;;;10.88;73.87;98374.13;5077289;28;45737;-62
2024/03/27 10:38:31;;;;;;;;;3.25;2.50;;;;;10.87;73.45;98374.25;5078888;27;45389;-62
2024/03/27 10:40:57;;;;;;;;;1.50;1.50;;;;;10.70;73.97;98352.28;5076580;28;45480;-62
2024/03/27 10:43:26;;;;;;;;;1.25;1.25;;;;;10.82;73.57;98376.38;5078853;27;46577;-62
2024/03/27 10:45:55;;;;;;;;;1.00;0.00;;;;;10.72;73.96;98352.16;5077050;28;45342;-62
2024/03/27 10:48:21;;;;;;;;;1.50;1.50;;;;;10.73;74.11;98352.06;5078887;27;45476;-62
2024/03/27 10:50:47;;;;;;;;;2.00;2.00;;;;;10.92;73.84;98372.94;5078501;27;45449;-62
2024/03/27 10:53:14;;;;;;;;;3.50;3.50;;;;;10.82;73.45;98347.88;5078534;28;45450;-62
2024/03/27 10:55:40;;;;;;;;;2.00;2.00;;;;;10.97;73.49;98369.09;5076848;28;45260;-62
2024/03/27 10:58:08;;;;;;;;;2.50;2.50;;;;;10.80;73.13;98344.47;5078698;27;45603;-62
2024/03/27 11:00:33;;;;;;;;;2.75;2.00;;;;;10.86;72.80;98352.03;5078467;27;45458;-62
2024/03/27 11:02:58;;;;;;;;;4.00;2.25;;;;;10.80;73.51;98339.13;5078310;27;45720;-62
2024/03/27 11:05:28;;;;;;;;;2.00;2.00;;;;;10.90;73.98;98337.50;5081220;28;45412;-62
2024/03/27 11:07:58;;;;;;;;;2.75;1.00;;;;;11.00;73.35;98339.53;5082086;28;45453;-62
2024/03/27 11:10:25;;;;;;;;;4.75;3.25;;;;;11.13;73.15;98354.53;5081767;27;45377;-62
2024/03/27 11:12:50;;;;;;;;;1.25;1.25;;;;;11.06;73.45;98326.59;5080248;28;47849;-62
2024/03/27 11:15:17;;;;;;;;;2.25;2.25;;;;;11.18;72.48;98340.84;5081657;27;45372;-62
2024/03/27 11:17:55;;;;;;;;;1.00;1.00;;;;;11.13;71.93;98308.28;5081842;27;45393;-62
2024/03/27 11:20:22;;;;;;;;;1.00;1.00;;;;;11.21;71.46;98311.25;5081454;27;45361;-62
2024/03/27 11:22:48;;;;;;;;;1.00;0.00;;;;;11.22;71.65;98304.94;5080335;28;48368;-62
2024/03/27 11:25:14;;;;;;;;;1.00;1.00;;;;;11.25;70.71;98306.53;5081330;28;45519;-62
2024/03/27 11:27:40;;;;;;;;;0.50;0.50;;;;;11.34;70.50;98311.19;5081394;27;45473;-62